createdAt,value
2018-04-12T08:46:58.868Z,37.70
2018-04-12T08:49:27.164Z,36.93
2018-04-12T08:51:54.708Z,35.30
2018-04-12T08:54:23.010Z,37.10
2018-04-12T08:56:50.575Z,35.10
2018-04-12T08:59:18.119Z,38.90
2018-04-12T09:01:45.642Z,37.53
2018-04-12T09:04:13.191Z,35.47
2018-04-12T09:06:40.705Z,38.33
2018-04-12T09:09:08.277Z,36.17
2018-04-12T09:11:35.807Z,38.53
2018-04-12T09:14:04.126Z,37.80
2018-04-12T09:16:35.836Z,36.30
2018-04-12T09:19:04.137Z,35.70
2018-04-12T09:21:31.676Z,36.33
2018-04-12T09:23:59.998Z,37.73
2018-04-12T09:26:27.532Z,35.53
2018-04-12T09:28:55.068Z,34.93
2018-04-12T09:31:23.365Z,35.47
2018-04-12T09:33:50.921Z,35.53
2018-04-12T09:36:19.235Z,35.13
2018-04-12T09:38:46.764Z,35.80
2018-04-12T09:41:14.314Z,36.90
2018-04-12T09:43:42.607Z,34.33
2018-04-12T09:46:10.156Z,37.03
2018-04-12T09:48:38.457Z,36.80
2018-04-12T09:51:05.983Z,36.17
2018-04-12T09:53:34.295Z,37.93
2018-04-12T09:56:01.829Z,36.73
2018-04-12T09:58:30.130Z,36.40
2018-04-12T10:00:57.674Z,37.97
2018-04-12T10:03:25.224Z,38.90
2018-04-12T10:05:59.233Z,39.33
2018-04-12T10:08:29.046Z,39.37
2018-04-12T10:10:57.460Z,39.83
2018-04-12T10:13:29.167Z,39.60
2018-04-12T10:16:01.327Z,39.03
2018-04-12T10:18:28.834Z,40.47
2018-04-12T10:20:56.368Z,38.17
2018-04-12T10:23:24.643Z,38.97
2018-04-12T10:25:53.656Z,37.57
2018-04-12T10:28:21.993Z,39.33
2018-04-12T10:30:49.529Z,38.43
2018-04-12T10:33:17.068Z,39.80
2018-04-12T10:35:44.584Z,39.60
2018-04-12T10:38:13.485Z,39.37
2018-04-12T10:40:41.796Z,37.53
2018-04-12T10:43:09.348Z,36.77
2018-04-12T10:45:36.883Z,38.43
2018-04-12T10:48:05.433Z,38.77
2018-04-12T10:50:32.961Z,38.30
2018-04-12T10:53:00.501Z,37.80
2018-04-12T10:55:28.046Z,39.37
2018-04-12T10:57:56.339Z,39.77
2018-04-12T11:00:23.917Z,37.53
2018-04-12T11:02:51.581Z,36.67
2018-04-12T11:05:19.136Z,37.27
2018-04-12T11:07:46.748Z,35.63
2018-04-12T11:10:14.339Z,35.33
2018-04-12T11:12:41.891Z,36.33
2018-04-12T11:15:10.193Z,35.07
2018-04-12T11:17:37.743Z,34.87
2018-04-12T11:20:05.259Z,33.73
2018-04-12T11:22:32.877Z,34.57
2018-04-12T11:25:01.133Z,32.23
2018-04-12T11:27:28.720Z,33.23
2018-04-12T11:29:56.240Z,32.45
2018-04-12T11:32:23.811Z,31.87
2018-04-12T11:34:51.377Z,30.23
2018-04-12T11:37:19.732Z,33.45
2018-04-12T11:39:48.065Z,30.33
2018-04-12T11:42:15.783Z,33.15
2018-04-12T11:44:44.690Z,30.27
2018-04-12T11:47:12.917Z,30.12
2018-04-12T11:49:40.589Z,30.37
2018-04-12T11:52:08.085Z,31.33
2018-04-12T11:54:35.628Z,31.17
2018-04-12T11:57:03.913Z,28.85
2018-04-12T11:59:32.224Z,27.92
2018-04-12T12:01:59.794Z,25.10
2018-04-12T12:04:27.355Z,25.75
2018-04-12T12:06:54.967Z,25.15
2018-04-12T12:09:22.502Z,24.63
2018-04-12T12:11:50.057Z,23.48
2018-04-12T12:14:17.654Z,24.52
2018-04-12T12:16:45.159Z,23.75
2018-04-12T12:19:12.716Z,23.48
2018-04-12T12:21:40.300Z,22.75
2018-04-12T12:24:08.013Z,23.95
2018-04-12T12:26:36.091Z,23.33
2018-04-12T12:29:03.635Z,23.58
2018-04-12T12:31:31.324Z,23.80
2018-04-12T12:33:58.861Z,25.23
2018-04-12T12:36:26.437Z,26.23
2018-04-12T12:38:54.464Z,26.67
2018-04-12T12:41:22.085Z,26.12
2018-04-12T12:43:49.688Z,24.83
2018-04-12T12:46:28.968Z,24.63
2018-04-12T12:48:56.499Z,24.15
2018-04-12T12:51:30.779Z,22.23
2018-04-12T13:03:50.141Z,23.65
2018-04-12T13:06:30.427Z,23.55
2018-04-12T13:09:04.604Z,23.92
2018-04-12T13:11:32.239Z,22.52
2018-04-12T13:13:59.810Z,23.02
2018-04-12T13:16:32.957Z,22.50
2018-04-12T13:19:01.709Z,21.95
2018-04-12T13:21:34.811Z,22.48
2018-04-12T13:24:03.106Z,21.10
2018-04-12T13:26:30.638Z,21.70
2018-04-12T13:29:10.905Z,19.85
2018-04-12T13:31:40.111Z,21.55
2018-04-12T13:34:14.122Z,21.40
2018-04-12T13:36:43.118Z,20.83
2018-04-12T13:39:11.401Z,20.58
2018-04-12T13:41:38.936Z,21.90
2018-04-12T13:44:07.385Z,19.37
2018-04-12T13:46:34.928Z,19.90
2018-04-12T13:49:08.420Z,19.35
2018-04-12T13:51:35.956Z,18.60
2018-04-12T13:54:09.440Z,18.55
2018-04-12T13:59:10.542Z,18.02
2018-04-12T14:01:38.095Z,18.65
2018-04-12T14:04:11.508Z,18.08
2018-04-12T14:06:39.025Z,19.33
2018-04-12T14:09:07.342Z,18.12
2018-04-12T14:11:34.861Z,19.15
2018-04-12T14:14:08.774Z,18.27
2018-04-12T14:16:37.113Z,18.37
2018-04-12T14:19:04.699Z,17.80
2018-04-12T14:21:32.998Z,18.65
2018-04-12T14:24:06.154Z,17.95
2018-04-12T14:26:33.684Z,17.67
2018-04-12T14:29:06.943Z,18.77
2018-04-12T14:31:34.471Z,18.15
2018-04-12T14:34:08.405Z,17.27
2018-04-12T14:36:35.984Z,18.37
2018-04-12T14:39:03.521Z,16.10
2018-04-12T14:41:31.812Z,18.10
2018-04-12T14:44:05.127Z,17.20
2018-04-12T14:46:33.473Z,17.37
2018-04-12T14:49:01.753Z,18.15
2018-04-12T14:51:34.930Z,17.40
2018-04-12T14:54:08.984Z,18.02
2018-04-12T14:56:36.645Z,16.58
2018-04-12T14:59:04.194Z,16.83
2018-04-12T15:01:31.866Z,16.55
2018-04-12T15:03:59.395Z,15.80
2018-04-12T15:06:27.716Z,16.55
2018-04-12T15:08:55.252Z,16.52
2018-04-12T15:11:22.792Z,15.13
2018-04-12T15:13:51.097Z,13.68
2018-04-12T15:16:18.651Z,16.65
2018-04-12T15:18:46.222Z,13.55
2018-04-12T15:21:19.421Z,12.75
2018-04-12T15:23:46.953Z,11.60
2018-04-12T15:26:14.558Z,11.70
2018-04-12T15:28:42.153Z,12.07
2018-04-12T15:31:10.432Z,12.77
2018-04-12T15:33:38.742Z,12.10
2018-04-12T15:36:12.233Z,12.50
2018-04-12T15:38:39.774Z,12.48
2018-04-12T15:41:08.079Z,17.73
2018-04-12T15:43:41.599Z,13.07
2018-04-12T15:46:14.823Z,12.65
2018-04-12T15:48:42.370Z,12.68
2018-04-12T15:51:15.893Z,12.23
2018-04-12T15:53:49.829Z,12.00
2018-04-12T15:56:17.364Z,11.98
2018-04-12T15:58:45.668Z,17.30
2018-04-12T16:01:13.196Z,12.95
2018-04-12T16:03:41.520Z,10.57
2018-04-12T16:06:09.056Z,11.73
2018-04-12T16:08:36.615Z,10.82
2018-04-12T16:11:04.165Z,10.75
2018-04-12T16:13:32.459Z,10.82
2018-04-12T16:16:00.000Z,10.65
2018-04-12T16:18:28.312Z,10.30
2018-04-12T16:20:55.880Z,10.52
2018-04-12T16:23:23.416Z,10.80
2018-04-12T16:25:51.668Z,11.43
2018-04-12T16:28:19.981Z,11.10
2018-04-12T16:30:47.504Z,10.98
2018-04-12T16:33:15.873Z,10.70
2018-04-12T16:35:49.257Z,10.65
2018-04-12T16:38:16.791Z,11.25
2018-04-12T16:40:44.380Z,10.32
2018-04-12T16:43:11.978Z,26.30
2018-04-12T16:45:39.560Z,18.83
2018-04-12T16:48:07.130Z,12.65
2018-04-12T16:50:40.633Z,11.93
2018-04-12T16:53:08.173Z,10.73
2018-04-12T16:55:36.669Z,10.80
2018-04-12T16:58:10.066Z,14.65
2018-04-12T17:00:37.594Z,11.73
2018-04-12T17:03:11.583Z,11.82
2018-04-12T17:05:39.148Z,10.70
2018-04-12T17:08:07.595Z,11.63
2018-04-12T17:10:35.149Z,11.82
2018-04-12T17:13:03.120Z,11.80
2018-04-12T17:15:30.663Z,11.35
2018-04-12T17:18:04.111Z,13.10
2018-04-12T17:20:37.323Z,11.98
2018-04-12T17:23:05.672Z,12.05
2018-04-12T17:25:39.071Z,11.35
2018-04-12T17:28:06.673Z,11.45
2018-04-12T17:30:34.242Z,11.68
2018-04-12T17:33:13.901Z,11.23
2018-04-12T17:35:47.339Z,10.93
2018-04-12T17:38:16.908Z,14.35
2018-04-12T17:40:44.430Z,18.58
2018-04-12T17:53:08.765Z,11.38
2018-04-12T17:55:36.312Z,12.77
2018-04-12T17:58:04.144Z,12.15
2018-04-12T18:00:31.716Z,13.10
2018-04-12T18:03:05.206Z,14.95
2018-04-12T18:05:39.176Z,15.25
2018-04-12T18:08:07.499Z,14.80
2018-04-12T18:10:35.048Z,12.63
2018-04-12T18:13:14.511Z,13.15
2018-04-12T18:15:42.029Z,23.30
2018-04-12T18:18:15.204Z,17.98
2018-04-12T18:20:49.422Z,14.95
2018-04-12T18:23:17.848Z,14.40
2018-04-12T18:25:50.977Z,13.35
2018-04-12T18:28:18.520Z,12.35
2018-04-12T18:30:46.056Z,12.13
2018-04-12T18:33:14.363Z,12.65
2018-04-12T18:35:47.725Z,12.65
2018-04-12T18:38:15.930Z,12.50
2018-04-12T18:40:49.775Z,12.90
2018-04-12T18:43:23.136Z,12.02
2018-04-12T18:45:50.865Z,11.95
2018-04-12T18:48:18.419Z,12.70
2018-04-12T18:50:46.051Z,12.73
2018-04-12T18:53:14.349Z,12.30
2018-04-12T18:55:44.037Z,12.02
2018-04-12T18:58:18.107Z,11.70
2018-04-12T19:00:46.421Z,11.57
2018-04-12T19:03:20.576Z,12.27
2018-04-12T19:05:54.133Z,14.07
2018-04-12T19:08:28.162Z,13.98
2018-04-12T19:11:01.395Z,14.87
2018-04-12T19:13:28.977Z,15.93
2018-04-12T19:16:08.293Z,16.73
2018-04-12T19:18:35.851Z,15.48
2018-04-12T19:21:03.400Z,13.02
2018-04-12T19:23:30.967Z,13.45
2018-04-12T19:25:58.507Z,12.90
2018-04-12T19:28:31.910Z,13.43
2018-04-12T19:30:59.434Z,13.40
2018-04-12T19:33:27.743Z,13.55
2018-04-12T19:35:55.305Z,13.48
2018-04-12T19:38:28.669Z,15.18
2018-04-12T19:40:56.963Z,12.70
2018-04-12T19:43:31.644Z,14.05
2018-04-12T19:45:59.215Z,13.93
2018-04-12T19:48:26.772Z,13.35
2018-04-12T19:50:54.334Z,27.48
2018-04-12T19:53:21.905Z,21.75
2018-04-12T19:55:50.232Z,18.98
2018-04-12T19:58:17.782Z,18.98
2018-04-12T20:00:45.355Z,16.42
2018-04-12T20:03:13.789Z,16.70
2018-04-12T20:05:48.789Z,16.75
2018-04-12T20:08:16.387Z,15.60
2018-04-12T20:10:44.680Z,15.93
2018-04-12T20:13:12.209Z,15.60
2018-04-12T20:15:39.743Z,15.60
2018-04-12T20:18:13.175Z,16.05
2018-04-12T20:20:47.321Z,16.50
2018-04-12T20:23:14.883Z,16.85
2018-04-12T20:25:45.376Z,18.27
2018-04-12T20:28:13.669Z,16.20
2018-04-12T20:30:42.045Z,19.23
2018-04-12T20:33:16.357Z,16.45
2018-04-12T20:35:50.457Z,18.25
2018-04-12T20:38:24.599Z,15.90
2018-04-12T20:40:52.150Z,16.80
2018-04-12T20:43:27.165Z,17.45
2018-04-12T20:45:56.652Z,17.62
2018-04-12T20:48:24.188Z,17.33
2018-04-12T20:50:51.716Z,18.65
2018-04-12T20:53:20.064Z,17.52
2018-04-12T20:55:53.284Z,17.17
2018-04-12T20:58:21.606Z,16.80
2018-04-12T21:00:49.122Z,17.77
2018-04-12T21:03:17.450Z,19.30
2018-04-12T21:05:50.854Z,15.10
2018-04-12T21:08:24.314Z,19.55
2018-04-12T21:10:57.669Z,16.17
2018-04-12T21:13:31.195Z,14.35
2018-04-12T21:15:59.419Z,12.63
2018-04-12T21:18:26.951Z,12.52
2018-04-12T21:21:00.455Z,11.93
2018-04-12T21:23:27.995Z,10.70
2018-04-12T21:26:07.660Z,10.13
2018-04-12T21:28:48.014Z,9.88
2018-04-12T21:31:27.556Z,9.52
2018-04-12T21:33:55.079Z,10.80
2018-04-12T21:36:23.368Z,10.77
2018-04-12T21:38:57.408Z,10.20
2018-04-12T21:41:30.823Z,10.63
2018-04-12T21:43:58.356Z,10.45
2018-04-12T21:46:31.897Z,10.93
2018-04-12T21:49:00.320Z,10.43
2018-04-12T21:51:33.800Z,10.35
2018-04-12T21:54:08.074Z,10.90
2018-04-12T21:56:35.603Z,9.50
2018-04-12T21:59:03.149Z,10.05
2018-04-12T22:01:30.689Z,10.07
2018-04-12T22:03:58.214Z,9.10
2018-04-12T22:06:37.229Z,10.23
2018-04-12T22:09:05.446Z,8.88
2018-04-12T22:11:32.983Z,9.00
2018-04-12T22:14:02.147Z,8.60
2018-04-12T22:16:35.487Z,8.65
2018-04-12T22:19:03.018Z,9.50
2018-04-12T22:21:30.557Z,10.23
2018-04-12T22:23:58.081Z,10.63
2018-04-12T22:26:26.255Z,9.90
2018-04-12T22:28:59.652Z,11.27
2018-04-12T22:31:27.176Z,13.48
2018-04-12T22:33:54.721Z,12.25
2018-04-12T22:36:22.257Z,9.77
2018-04-12T22:38:49.797Z,9.00
2018-04-12T22:41:17.320Z,8.60
2018-04-12T22:43:56.780Z,9.88
2018-04-12T22:46:24.308Z,11.38
2018-04-12T22:48:51.831Z,11.75
2018-04-12T22:51:19.522Z,10.90
2018-04-12T22:53:47.035Z,10.95
2018-04-12T22:56:20.485Z,11.63
2018-04-12T22:58:54.172Z,13.32
2018-04-12T23:01:21.706Z,18.58
2018-04-12T23:03:50.167Z,14.05
2018-04-12T23:06:17.817Z,14.68
2018-04-12T23:08:45.371Z,13.20
2018-04-12T23:11:18.875Z,14.40
2018-04-12T23:13:46.524Z,14.73
2018-04-12T23:16:14.040Z,25.52
2018-04-12T23:18:42.352Z,16.35
2018-04-12T23:21:09.878Z,14.65
2018-04-12T23:23:44.043Z,16.02
2018-04-12T23:26:11.676Z,15.82
2018-04-12T23:28:39.222Z,16.42
2018-04-12T23:31:06.775Z,16.27
2018-04-12T23:33:35.055Z,14.38
2018-04-12T23:36:02.592Z,15.70
2018-04-12T23:38:30.884Z,14.82
2018-04-12T23:41:05.115Z,15.65
2018-04-12T23:43:32.643Z,16.02
2018-04-12T23:46:00.163Z,15.57
2018-04-12T23:48:27.690Z,16.55
2018-04-12T23:51:06.924Z,16.35
2018-04-12T23:53:34.445Z,16.58
2018-04-12T23:56:07.539Z,17.52
2018-04-12T23:58:35.088Z,20.98
